createdAt,value
2018-02-22T00:01:07.706Z,4.19
2018-02-22T00:03:35.224Z,4.18
2018-02-22T00:06:02.727Z,4.18
2018-02-22T00:08:30.221Z,4.16
2018-02-22T00:10:57.735Z,4.16
2018-02-22T00:13:25.217Z,4.16
2018-02-22T00:15:52.731Z,4.15
2018-02-22T00:18:20.231Z,4.13
2018-02-22T00:20:47.723Z,4.14
2018-02-22T00:23:15.230Z,4.13
2018-02-22T00:25:42.707Z,4.12
2018-02-22T00:28:10.200Z,4.10
2018-02-22T00:30:37.680Z,4.06
2018-02-22T00:33:05.176Z,4.03
2018-02-22T00:35:32.692Z,4.02
2018-02-22T00:38:00.194Z,4.01
2018-02-22T00:40:27.687Z,4.03
2018-02-22T00:42:55.179Z,4.02
2018-02-22T00:45:22.663Z,4.00
2018-02-22T00:47:50.160Z,3.97
2018-02-22T00:50:17.647Z,3.96
2018-02-22T00:52:45.156Z,3.93
2018-02-22T00:55:12.644Z,3.91
2018-02-22T00:57:40.127Z,3.90
2018-02-22T01:00:07.614Z,3.88
2018-02-22T01:02:35.108Z,3.86
2018-02-22T01:05:02.599Z,3.85
2018-02-22T01:07:30.087Z,3.82
2018-02-22T01:09:57.587Z,3.80
2018-02-22T01:12:25.085Z,3.77
2018-02-22T01:14:52.559Z,3.76
2018-02-22T01:17:20.051Z,3.75
2018-02-22T01:19:47.544Z,3.74
2018-02-22T01:22:15.040Z,3.74
2018-02-22T01:24:42.529Z,3.74
2018-02-22T01:27:10.032Z,3.74
2018-02-22T01:29:37.506Z,3.74
2018-02-22T01:32:05.024Z,3.73
2018-02-22T01:34:32.508Z,3.69
2018-02-22T01:37:00.023Z,3.65
2018-02-22T01:39:27.506Z,3.63
2018-02-22T01:41:54.999Z,3.61
2018-02-22T01:44:22.491Z,3.59
2018-02-22T01:46:49.976Z,3.55
2018-02-22T01:49:17.472Z,3.50
2018-02-22T01:51:44.967Z,3.47
2018-02-22T01:54:12.494Z,3.45
2018-02-22T01:56:39.984Z,3.43
2018-02-22T01:59:07.463Z,3.40
2018-02-22T02:01:34.960Z,3.36
2018-02-22T02:04:02.458Z,3.34
2018-02-22T02:06:29.947Z,3.31
2018-02-22T02:08:57.435Z,3.29
2018-02-22T02:11:24.933Z,3.28
2018-02-22T02:13:52.431Z,3.26
2018-02-22T02:16:19.950Z,3.22
2018-02-22T02:18:47.431Z,3.20
2018-02-22T02:21:14.927Z,3.21
2018-02-22T02:23:42.427Z,3.20
2018-02-22T02:26:09.916Z,3.19
2018-02-22T02:28:37.404Z,3.18
2018-02-22T02:31:04.898Z,3.17
2018-02-22T02:33:32.492Z,3.16
2018-02-22T02:35:59.980Z,3.16
2018-02-22T02:38:27.473Z,3.16
2018-02-22T02:40:54.971Z,3.14
2018-02-22T02:43:22.473Z,3.13
2018-02-22T02:45:49.960Z,3.12
2018-02-22T02:48:17.452Z,3.13
2018-02-22T02:50:44.931Z,3.12
2018-02-22T02:53:12.436Z,3.10
2018-02-22T02:55:39.922Z,3.08
2018-02-22T02:58:07.419Z,3.09
2018-02-22T03:00:34.896Z,3.09
2018-02-22T03:03:02.393Z,3.10
2018-02-22T03:05:29.879Z,3.12
2018-02-22T03:07:57.373Z,3.13
2018-02-22T03:10:24.867Z,3.15
2018-02-22T03:12:52.379Z,3.18
2018-02-22T03:15:19.876Z,3.19
2018-02-22T03:17:47.362Z,3.20
2018-02-22T03:20:14.858Z,3.21
2018-02-22T03:22:42.354Z,3.21
2018-02-22T03:25:09.858Z,3.23
2018-02-22T03:27:37.339Z,3.24
2018-02-22T03:30:04.837Z,3.24
2018-02-22T03:32:32.353Z,3.23
2018-02-22T03:34:59.847Z,3.24
2018-02-22T03:37:27.324Z,3.23
2018-02-22T03:39:54.819Z,3.23
2018-02-22T03:42:22.326Z,3.22
2018-02-22T03:44:49.820Z,3.22
2018-02-22T03:47:17.306Z,3.21
2018-02-22T03:49:44.799Z,3.20
2018-02-22T03:52:12.297Z,3.19
2018-02-22T03:54:39.783Z,3.18
2018-02-22T03:57:07.270Z,3.18
2018-02-22T04:02:04.806Z,3.17
2018-02-22T04:04:32.287Z,3.17
2018-02-22T04:06:59.788Z,3.16
2018-02-22T04:09:27.283Z,3.15
2018-02-22T04:11:54.785Z,3.15
2018-02-22T04:14:22.290Z,3.15
2018-02-22T04:16:49.734Z,3.14
2018-02-22T04:19:17.271Z,3.12
2018-02-22T04:21:44.764Z,3.10
2018-02-22T04:24:12.258Z,3.07
2018-02-22T04:26:39.751Z,3.02
2018-02-22T04:29:07.267Z,2.93
2018-02-22T04:31:34.747Z,2.86
2018-02-22T04:34:02.234Z,2.81
2018-02-22T04:36:29.744Z,2.77
2018-02-22T04:38:57.231Z,2.75
2018-02-22T04:41:24.758Z,2.73
2018-02-22T04:43:52.280Z,2.69
2018-02-22T04:46:19.743Z,2.67
2018-02-22T04:48:47.239Z,2.62
2018-02-22T04:51:14.746Z,2.59
2018-02-22T04:53:42.227Z,2.58
2018-02-22T04:56:09.739Z,2.58
2018-02-22T04:58:37.259Z,2.55
2018-02-22T05:01:04.718Z,2.52
2018-02-22T05:03:32.259Z,2.48
2018-02-22T05:05:59.751Z,2.46
2018-02-22T05:08:27.267Z,2.45
2018-02-22T05:10:54.763Z,2.44
2018-02-22T05:13:22.266Z,2.43
2018-02-22T05:15:49.747Z,2.43
2018-02-22T05:18:17.236Z,2.43
2018-02-22T05:20:44.743Z,2.41
2018-02-22T05:23:12.220Z,2.40
2018-02-22T05:25:39.720Z,2.40
2018-02-22T05:28:07.227Z,2.42
2018-02-22T05:30:34.716Z,2.43
2018-02-22T05:33:02.211Z,2.44
2018-02-22T05:35:29.708Z,2.45
2018-02-22T05:37:57.194Z,2.45
2018-02-22T05:40:24.689Z,2.45
2018-02-22T05:42:52.188Z,2.46
2018-02-22T05:45:19.667Z,2.46
2018-02-22T05:47:47.180Z,2.47
2018-02-22T05:50:14.663Z,2.48
2018-02-22T05:52:42.143Z,2.49
2018-02-22T05:55:09.639Z,2.51
2018-02-22T05:57:37.118Z,2.51
2018-02-22T06:00:04.620Z,2.53
2018-02-22T06:02:32.118Z,2.54
2018-02-22T06:04:59.607Z,2.55
2018-02-22T06:07:27.082Z,2.55
2018-02-22T06:09:54.545Z,2.57
2018-02-22T06:12:22.061Z,2.57
2018-02-22T06:14:49.565Z,2.58
2018-02-22T06:17:17.056Z,2.58
2018-02-22T06:19:44.547Z,2.59
2018-02-22T06:22:12.038Z,2.59
2018-02-22T06:24:39.551Z,2.60
2018-02-22T06:27:07.059Z,2.61
2018-02-22T06:29:34.508Z,2.61
2018-02-22T06:32:02.046Z,2.61
2018-02-22T06:34:29.548Z,2.61
2018-02-22T06:36:57.023Z,2.61
2018-02-22T06:39:24.511Z,2.62
2018-02-22T06:41:52.003Z,2.61
2018-02-22T06:44:19.514Z,2.61
2018-02-22T06:46:47.039Z,2.61
2018-02-22T06:49:14.509Z,2.60
2018-02-22T06:51:42.003Z,2.60
2018-02-22T06:54:09.506Z,2.60
2018-02-22T06:56:36.999Z,2.59
2018-02-22T06:59:04.476Z,2.58
2018-02-22T07:01:31.966Z,2.58
2018-02-22T07:03:59.481Z,2.56
2018-02-22T07:06:26.961Z,2.55
2018-02-22T07:08:54.441Z,2.54
2018-02-22T07:11:21.946Z,2.53
2018-02-22T07:13:49.452Z,2.52
2018-02-22T07:16:16.983Z,2.51
2018-02-22T07:18:44.489Z,2.50
2018-02-22T07:21:12.001Z,2.50
2018-02-22T07:23:39.503Z,2.48
2018-02-22T07:26:07.011Z,2.48
2018-02-22T07:28:34.524Z,2.48
2018-02-22T07:31:02.033Z,2.47
2018-02-22T07:33:29.575Z,2.47
2018-02-22T07:35:57.086Z,2.46
2018-02-22T07:38:24.577Z,2.46
2018-02-22T07:40:52.066Z,2.46
2018-02-22T07:43:19.556Z,2.46
2018-02-22T07:45:47.051Z,2.45
2018-02-22T07:48:14.542Z,2.45
2018-02-22T07:50:42.035Z,2.47
2018-02-22T07:53:09.523Z,2.49
2018-02-22T07:55:37.021Z,2.49
2018-02-22T07:58:04.536Z,2.53
2018-02-22T08:00:32.031Z,2.55
2018-02-22T08:02:59.521Z,2.58
2018-02-22T08:05:27.032Z,2.62
2018-02-22T08:07:54.537Z,2.66
2018-02-22T08:10:22.029Z,2.70
2018-02-22T08:12:49.547Z,2.74
2018-02-22T08:15:17.046Z,2.77
2018-02-22T08:17:44.600Z,2.80
2018-02-22T08:20:12.090Z,2.83
2018-02-22T08:22:39.587Z,2.87
2018-02-22T08:25:07.080Z,2.90
2018-02-22T08:27:34.563Z,2.95
2018-02-22T08:30:02.051Z,2.98
2018-02-22T08:32:29.534Z,3.00
2018-02-22T08:34:57.043Z,3.03
2018-02-22T08:37:24.527Z,3.05
2018-02-22T08:39:52.038Z,3.06
2018-02-22T08:42:19.552Z,3.09
2018-02-22T08:44:47.062Z,3.12
2018-02-22T08:47:14.580Z,3.16
2018-02-22T08:49:42.059Z,3.19
2018-02-22T08:52:09.555Z,3.23
2018-02-22T08:54:37.046Z,3.28
2018-02-22T08:57:04.536Z,3.32
2018-02-22T08:59:34.096Z,3.35
2018-02-22T09:02:01.585Z,3.40
2018-02-22T09:04:29.082Z,3.43
2018-02-22T09:06:56.571Z,3.47
2018-02-22T09:09:24.059Z,3.52
2018-02-22T09:11:51.555Z,3.56
2018-02-22T09:14:19.043Z,3.61
2018-02-22T09:16:46.529Z,3.65
2018-02-22T09:19:14.038Z,3.68
2018-02-22T09:21:41.534Z,3.72
2018-02-22T09:24:09.075Z,3.76
2018-02-22T09:26:36.643Z,3.81
2018-02-22T09:29:04.229Z,3.85
2018-02-22T09:31:31.732Z,3.89
2018-02-22T09:33:59.225Z,3.92
2018-02-22T09:36:26.721Z,3.96
2018-02-22T09:38:54.239Z,3.99
2018-02-22T09:41:21.735Z,4.03
2018-02-22T09:43:49.318Z,4.06
2018-02-22T09:46:16.814Z,4.10
2018-02-22T09:48:44.340Z,4.14
2018-02-22T09:51:11.867Z,4.17
2018-02-22T09:53:39.360Z,4.20
2018-02-22T09:56:06.851Z,4.24
2018-02-22T09:58:34.359Z,4.28
2018-02-22T10:01:01.860Z,4.31
2018-02-22T10:03:29.360Z,4.35
2018-02-22T10:05:56.867Z,4.40
2018-02-22T10:08:24.388Z,4.45
2018-02-22T10:10:51.910Z,4.50
2018-02-22T10:13:19.546Z,4.55
2018-02-22T10:15:47.120Z,4.58
2018-02-22T10:18:14.685Z,4.63
2018-02-22T10:20:42.193Z,4.68
2018-02-22T10:23:09.695Z,4.73
2018-02-22T10:25:37.182Z,4.79
2018-02-22T10:28:04.813Z,4.84
2018-02-22T10:30:32.328Z,4.89
2018-02-22T10:32:59.861Z,4.94
2018-02-22T10:35:27.394Z,5.00
2018-02-22T10:37:54.886Z,5.05
2018-02-22T10:40:22.428Z,5.10
2018-02-22T10:42:49.983Z,5.17
2018-02-22T10:45:17.463Z,5.22
2018-02-22T10:47:44.958Z,5.27
2018-02-22T10:50:12.457Z,5.31
2018-02-22T10:52:39.969Z,5.36
2018-02-22T10:55:07.472Z,5.40
2018-02-22T10:57:34.977Z,5.43
2018-02-22T11:00:02.493Z,5.47
2018-02-22T11:02:35.611Z,5.51
2018-02-22T11:05:03.111Z,5.57
2018-02-22T11:07:30.629Z,5.63
2018-02-22T11:09:58.150Z,5.69
2018-02-22T11:12:25.723Z,5.75
2018-02-22T11:14:53.235Z,5.81
2018-02-22T11:17:20.756Z,5.86
2018-02-22T11:19:48.277Z,5.93
2018-02-22T11:22:15.811Z,6.01
2018-02-22T11:24:43.299Z,6.06
2018-02-22T11:27:10.877Z,6.08
2018-02-22T11:29:38.379Z,6.11
2018-02-22T11:32:05.903Z,6.11
2018-02-22T11:34:33.400Z,6.13
2018-02-22T11:37:00.889Z,6.14
2018-02-22T11:39:28.433Z,6.15
2018-02-22T11:41:55.932Z,6.18
2018-02-22T11:44:23.452Z,6.22
2018-02-22T11:46:50.935Z,6.30
2018-02-22T11:49:18.504Z,6.38
2018-02-22T11:51:46.006Z,6.48
2018-02-22T11:54:13.516Z,6.60
2018-02-22T11:56:41.008Z,6.71
2018-02-22T11:59:08.558Z,6.79
2018-02-22T12:01:36.064Z,6.90
2018-02-22T12:04:03.594Z,6.98
2018-02-22T12:06:31.104Z,7.04
2018-02-22T12:08:58.740Z,7.10
2018-02-22T12:11:26.280Z,7.22
2018-02-22T12:13:53.828Z,7.36
2018-02-22T12:16:21.348Z,7.46
2018-02-22T12:18:48.820Z,7.62
2018-02-22T12:21:16.335Z,7.83
2018-02-22T12:23:43.830Z,7.93
2018-02-22T12:26:11.328Z,8.02
2018-02-22T12:28:39.394Z,8.08
2018-02-22T12:31:06.904Z,8.19
2018-02-22T12:33:34.419Z,8.31
2018-02-22T12:36:01.926Z,8.37
2018-02-22T12:38:29.418Z,8.40
2018-02-22T12:40:56.926Z,8.40
2018-02-22T12:43:24.426Z,8.40
2018-02-22T12:45:51.930Z,8.40
2018-02-22T12:48:19.428Z,8.41
2018-02-22T12:50:46.971Z,8.41
2018-02-22T12:53:14.479Z,8.34
2018-02-22T12:55:42.029Z,8.29
2018-02-22T12:58:09.528Z,8.24
2018-02-22T13:00:37.019Z,8.22
2018-02-22T13:03:04.549Z,8.23
2018-02-22T13:05:32.064Z,8.22
2018-02-22T13:07:59.565Z,8.24
2018-02-22T13:10:27.051Z,8.28
2018-02-22T13:12:54.573Z,8.32
2018-02-22T13:15:22.093Z,8.38
2018-02-22T13:17:49.620Z,8.47
2018-02-22T13:20:17.124Z,8.62
2018-02-22T13:22:44.620Z,8.79
2018-02-22T13:25:12.137Z,8.89
2018-02-22T13:27:39.631Z,8.92
2018-02-22T13:30:07.139Z,8.94
2018-02-22T13:32:46.265Z,8.96
2018-02-22T13:35:13.746Z,9.03
2018-02-22T13:40:51.446Z,9.31
2018-02-22T13:43:18.955Z,9.64
2018-02-22T13:45:46.476Z,9.92
2018-02-22T13:48:13.971Z,10.11
2018-02-22T13:50:53.236Z,10.05
2018-02-22T13:53:20.732Z,9.93
2018-02-22T13:55:48.239Z,9.89
2018-02-22T13:58:15.734Z,9.79
2018-02-22T14:00:54.924Z,9.67
2018-02-22T14:03:22.436Z,9.56
2018-02-22T14:05:49.925Z,9.48
2018-02-22T14:08:29.057Z,9.41
2018-02-22T14:11:03.447Z,9.29
2018-02-22T14:13:30.947Z,9.32
2018-02-22T14:15:58.532Z,9.32
2018-02-22T14:18:26.073Z,9.28
2018-02-22T14:20:53.580Z,9.34
2018-02-22T14:23:21.082Z,9.27
2018-02-22T14:25:48.595Z,9.17
2018-02-22T14:28:16.126Z,9.15
2018-02-22T14:30:43.628Z,9.15
2018-02-22T14:33:11.132Z,9.15
2018-02-22T14:35:38.638Z,9.20
2018-02-22T14:38:06.148Z,9.43
2018-02-22T14:40:33.681Z,9.61
2018-02-22T14:43:01.190Z,9.67
2018-02-22T14:45:28.723Z,9.57
2018-02-22T14:47:56.184Z,9.50
2018-02-22T14:50:23.676Z,9.63
2018-02-22T14:52:51.343Z,9.88
2018-02-22T14:55:18.844Z,10.12
2018-02-22T14:57:46.355Z,10.27
2018-02-22T15:00:13.877Z,10.22
2018-02-22T15:02:41.378Z,10.09
2018-02-22T15:05:08.871Z,9.96
2018-02-22T15:07:36.389Z,9.83
2018-02-22T15:10:03.896Z,9.69
2018-02-22T15:12:31.403Z,9.57
2018-02-22T15:14:58.896Z,9.46
2018-02-22T15:17:26.446Z,9.33
2018-02-22T15:19:54.067Z,9.21
2018-02-22T15:22:21.575Z,9.07
2018-02-22T15:24:49.915Z,8.94
2018-02-22T15:27:18.207Z,8.85
2018-02-22T15:29:45.702Z,8.79
2018-02-22T15:32:13.219Z,8.73
2018-02-22T15:34:40.715Z,8.69
2018-02-22T15:37:08.226Z,8.65
2018-02-22T15:39:35.734Z,8.57
2018-02-22T15:42:03.227Z,8.53
2018-02-22T15:44:30.727Z,8.46
2018-02-22T15:46:58.226Z,8.43
2018-02-22T15:49:25.724Z,8.42
2018-02-22T15:51:53.223Z,8.43
2018-02-22T15:54:20.725Z,8.52
2018-02-22T15:56:48.227Z,8.60
2018-02-22T15:59:15.808Z,8.73
2018-02-22T16:01:43.299Z,8.91
2018-02-22T16:04:10.800Z,9.09
2018-02-22T16:06:38.298Z,9.21
2018-02-22T16:09:05.811Z,9.30
2018-02-22T16:11:33.309Z,9.46
2018-02-22T16:14:00.835Z,9.60
2018-02-22T16:16:28.373Z,9.72
2018-02-22T16:18:55.871Z,9.80
2018-02-22T16:21:23.383Z,9.81
2018-02-22T16:23:50.971Z,9.79
2018-02-22T16:26:18.569Z,9.67
2018-02-22T16:28:46.072Z,9.51
2018-02-22T16:31:13.572Z,9.35
2018-02-22T16:33:41.075Z,9.21
2018-02-22T16:36:08.596Z,9.12
2018-02-22T16:38:36.096Z,9.08
2018-02-22T16:41:03.620Z,9.10
2018-02-22T16:43:32.404Z,9.11
2018-02-22T16:45:59.899Z,9.11
2018-02-22T16:48:27.477Z,9.11
2018-02-22T16:50:54.976Z,9.09
2018-02-22T16:53:22.495Z,9.07
2018-02-22T16:55:49.996Z,9.01
2018-02-22T16:58:17.507Z,8.95
2018-02-22T17:00:45.083Z,8.87
2018-02-22T17:03:12.555Z,8.81
2018-02-22T17:05:40.071Z,8.73
2018-02-22T17:08:07.579Z,8.65
2018-02-22T17:10:35.084Z,8.55
2018-02-22T17:13:02.591Z,8.42
2018-02-22T17:15:30.148Z,8.28
2018-02-22T17:17:57.724Z,8.14
2018-02-22T17:20:25.227Z,8.02
2018-02-22T17:22:52.742Z,7.87
2018-02-22T17:25:19.702Z,7.75
2018-02-22T17:27:52.575Z,7.61
2018-02-22T17:30:25.581Z,7.47
2018-02-22T17:32:53.106Z,7.35
2018-02-22T17:35:23.398Z,7.24
2018-02-22T17:37:56.943Z,7.10
2018-02-22T17:40:28.824Z,6.96
2018-02-22T17:42:56.348Z,6.84
2018-02-22T17:45:23.863Z,6.72
2018-02-22T17:47:51.404Z,6.60
2018-02-22T17:50:18.911Z,6.49
2018-02-22T17:52:46.409Z,6.38
2018-02-22T17:55:13.917Z,6.28
2018-02-22T17:57:41.431Z,6.20
2018-02-22T18:00:08.936Z,6.10
2018-02-22T18:02:36.448Z,6.03
2018-02-22T18:05:03.980Z,5.97
2018-02-22T18:07:31.559Z,5.90
2018-02-22T18:09:59.158Z,5.84
2018-02-22T18:12:26.649Z,5.78
2018-02-22T18:14:54.155Z,5.72
2018-02-22T18:17:21.667Z,5.66
2018-02-22T18:19:49.179Z,5.61
2018-02-22T18:22:16.681Z,5.56
2018-02-22T18:24:44.207Z,5.50
2018-02-22T18:27:11.700Z,5.45
2018-02-22T18:29:39.203Z,5.40
2018-02-22T18:32:06.690Z,5.35
2018-02-22T18:34:34.181Z,5.31
2018-02-22T18:37:01.681Z,5.26
2018-02-22T18:39:29.179Z,5.22
2018-02-22T18:41:59.243Z,5.16
2018-02-22T18:44:32.139Z,5.11
2018-02-22T18:46:59.659Z,5.06
2018-02-22T18:49:27.162Z,5.01
2018-02-22T18:51:54.660Z,4.95
2018-02-22T18:54:22.162Z,4.90
2018-02-22T18:56:49.674Z,4.83
2018-02-22T18:59:17.158Z,4.78
2018-02-22T19:01:44.648Z,4.73
2018-02-22T19:04:12.127Z,4.68
2018-02-22T19:06:39.647Z,4.63
2018-02-22T19:09:07.158Z,4.59
2018-02-22T19:11:34.643Z,4.55
2018-02-22T19:14:02.308Z,4.50
2018-02-22T19:16:29.808Z,4.46
2018-02-22T19:18:57.303Z,4.43
2018-02-22T19:21:24.836Z,4.39
2018-02-22T19:23:52.341Z,4.35
2018-02-22T19:26:19.903Z,4.31
2018-02-22T19:28:47.428Z,4.27
2018-02-22T19:31:14.931Z,4.22
2018-02-22T19:33:42.440Z,4.19
2018-02-22T19:36:09.935Z,4.17
2018-02-22T19:38:37.427Z,4.13
2018-02-22T19:41:05.727Z,4.11
2018-02-22T19:43:33.230Z,4.07
2018-02-22T19:46:00.726Z,4.03
2018-02-22T19:48:28.219Z,4.00
2018-02-22T19:50:55.732Z,3.96
2018-02-22T19:53:23.228Z,3.94
2018-02-22T19:55:50.707Z,3.92
2018-02-22T19:58:18.227Z,3.91
2018-02-22T20:00:45.718Z,3.88
2018-02-22T20:03:13.247Z,3.85
2018-02-22T20:05:40.735Z,3.82
2018-02-22T20:08:08.241Z,3.78
2018-02-22T20:10:35.748Z,3.75
2018-02-22T20:13:03.246Z,3.72
2018-02-22T20:15:30.782Z,3.69
2018-02-22T20:17:58.306Z,3.68
2018-02-22T20:20:25.804Z,3.65
2018-02-22T20:22:53.335Z,3.63
2018-02-22T20:25:20.935Z,3.61
2018-02-22T20:27:48.458Z,3.59
2018-02-22T20:30:15.979Z,3.58
2018-02-22T20:32:43.487Z,3.56
2018-02-22T20:35:10.984Z,3.54
2018-02-22T20:37:38.530Z,3.52
2018-02-22T20:40:06.030Z,3.49
2018-02-22T20:42:33.523Z,3.46
2018-02-22T20:45:01.064Z,3.43
2018-02-22T20:47:28.587Z,3.40
2018-02-22T20:49:56.127Z,3.37
2018-02-22T20:52:30.036Z,3.33
2018-02-22T20:55:10.308Z,3.32
2018-02-22T20:57:37.894Z,3.28
2018-02-22T21:00:05.372Z,3.26
2018-02-22T21:02:33.017Z,3.23
2018-02-22T21:05:00.525Z,3.20
2018-02-22T21:07:28.023Z,3.17
2018-02-22T21:09:55.592Z,3.14
2018-02-22T21:12:23.096Z,3.12
2018-02-22T21:14:50.578Z,3.11
2018-02-22T21:17:18.069Z,3.08
2018-02-22T21:19:45.563Z,3.05
2018-02-22T21:22:13.083Z,3.04
2018-02-22T21:24:40.579Z,3.03
2018-02-22T21:27:08.067Z,3.01
2018-02-22T21:29:35.557Z,2.99
2018-02-22T21:32:03.047Z,2.97
2018-02-22T21:34:30.538Z,2.96
2018-02-22T21:36:58.019Z,2.94
2018-02-22T21:39:25.580Z,2.91
2018-02-22T21:41:53.059Z,2.90
2018-02-22T21:44:20.572Z,2.88
2018-02-22T21:46:48.053Z,2.85
2018-02-22T21:49:15.531Z,2.84
2018-02-22T21:51:43.016Z,2.81
2018-02-22T21:54:10.531Z,2.79
2018-02-22T21:56:38.036Z,2.76
2018-02-22T21:59:05.527Z,2.74
2018-02-22T22:01:33.031Z,2.72
2018-02-22T22:04:00.546Z,2.68
2018-02-22T22:06:28.043Z,2.66
2018-02-22T22:08:55.523Z,2.63
2018-02-22T22:11:23.022Z,2.61
2018-02-22T22:13:50.503Z,2.59
2018-02-22T22:16:18.017Z,2.58
2018-02-22T22:18:45.510Z,2.57
2018-02-22T22:21:12.987Z,2.55
2018-02-22T22:23:40.509Z,2.54
2018-02-22T22:26:08.027Z,2.54
2018-02-22T22:28:35.518Z,2.53
2018-02-22T22:31:03.011Z,2.53
2018-02-22T22:33:30.497Z,2.53
2018-02-22T22:35:57.990Z,2.53
2018-02-22T22:38:25.536Z,2.54
2018-02-22T22:40:53.071Z,2.54
2018-02-22T22:43:20.567Z,2.54
2018-02-22T22:45:48.058Z,2.54
2018-02-22T22:48:15.555Z,2.53
2018-02-22T22:50:43.051Z,2.53
2018-02-22T22:53:10.556Z,2.52
2018-02-22T22:55:38.043Z,2.50
2018-02-22T22:58:05.548Z,2.49
2018-02-22T23:00:33.039Z,2.47
2018-02-22T23:03:00.543Z,2.46
2018-02-22T23:05:28.040Z,2.44
2018-02-22T23:07:55.548Z,2.42
2018-02-22T23:10:23.051Z,2.40
2018-02-22T23:12:50.589Z,2.38
2018-02-22T23:15:18.079Z,2.36
2018-02-22T23:17:45.572Z,2.35
2018-02-22T23:20:13.068Z,2.34
2018-02-22T23:22:40.563Z,2.32
2018-02-22T23:25:08.075Z,2.31
2018-02-22T23:27:35.557Z,2.31
2018-02-22T23:30:03.055Z,2.31
2018-02-22T23:32:30.556Z,2.30
2018-02-22T23:34:58.055Z,2.27
2018-02-22T23:37:25.591Z,2.26
2018-02-22T23:39:53.111Z,2.25
2018-02-22T23:42:26.079Z,2.23
2018-02-22T23:44:53.555Z,2.22
2018-02-22T23:47:21.059Z,2.20
2018-02-22T23:49:48.571Z,2.20
2018-02-22T23:52:16.069Z,2.19
2018-02-22T23:54:43.587Z,2.19
2018-02-22T23:57:11.064Z,2.16
2018-02-22T23:59:38.560Z,2.14
